Time;durP1;ratioP1;P1;durP2;ratioP2;P2;SDS_P1;SDS_P2;PMS_P1;PMS_P2;Temp;Humidity;BMP_temperature;BMP_pressure;BME280_temperature;BME280_humidity;BME280_pressure;Samples;Min_cycle;Max_cycle;Signal;HPM_P1;HPM_P2
2021/08/08 00:00:06;;;;;;;5.20;2.97;;;19.10;99.90;;;;;;5001752;28;20461;-49
2021/08/08 00:02:37;;;;;;;3.90;2.70;;;19.00;99.90;;;;;;5002231;28;20430;-49
2021/08/08 00:05:05;;;;;;;3.63;3.20;;;19.00;99.90;;;;;;5002037;28;20547;-50
2021/08/08 00:07:33;;;;;;;4.17;3.00;;;19.00;99.90;;;;;;5002161;28;20935;-50
2021/08/08 00:10:00;;;;;;;4.07;2.80;;;19.00;99.90;;;;;;5002760;28;20445;-47
2021/08/08 00:12:27;;;;;;;4.30;3.20;;;19.10;99.90;;;;;;5002706;28;20442;-50
2021/08/08 00:14:53;;;;;;;4.73;3.67;;;19.10;99.90;;;;;;5002131;28;20454;-53
2021/08/08 00:17:20;;;;;;;3.40;2.43;;;19.10;99.90;;;;;;5001251;28;20923;-49
2021/08/08 00:19:48;;;;;;;4.30;2.93;;;19.10;99.90;;;;;;5002356;28;20446;-51
2021/08/08 00:22:15;;;;;;;3.80;2.80;;;19.10;99.90;;;;;;5002281;28;20481;-52
2021/08/08 00:24:43;;;;;;;3.90;3.50;;;19.10;99.90;;;;;;5002613;28;20458;-49
2021/08/08 00:27:10;;;;;;;4.50;2.67;;;19.10;99.90;;;;;;5002412;28;20446;-52
2021/08/08 00:29:37;;;;;;;2.83;2.63;;;19.10;99.90;;;;;;5002125;28;20544;-48
2021/08/08 00:32:04;;;;;;;3.40;2.80;;;19.00;99.90;;;;;;5001947;28;20764;-52
2021/08/08 00:34:31;;;;;;;4.27;3.13;;;19.00;99.90;;;;;;5001997;28;20891;-50
2021/08/08 00:36:58;;;;;;;4.17;2.83;;;19.00;99.90;;;;;;5001944;28;20504;-49
2021/08/08 00:39:25;;;;;;;3.60;2.70;;;19.00;99.90;;;;;;5001872;28;20442;-53
2021/08/08 00:41:53;;;;;;;4.30;2.97;;;18.90;99.90;;;;;;5001586;28;20462;-49
2021/08/08 00:44:20;;;;;;;3.30;2.90;;;18.90;99.90;;;;;;5001857;28;20828;-53
2021/08/08 00:46:47;;;;;;;4.20;2.60;;;18.80;99.90;;;;;;5001594;28;20482;-50
2021/08/08 00:49:13;;;;;;;3.60;2.43;;;18.80;99.90;;;;;;5001960;28;20497;-49
2021/08/08 00:51:40;;;;;;;5.87;3.17;;;18.80;99.90;;;;;;5002292;28;20512;-50
2021/08/08 00:54:08;;;;;;;5.37;2.93;;;18.70;99.90;;;;;;5002446;28;20450;-53
2021/08/08 00:56:35;;;;;;;4.40;2.70;;;18.70;99.90;;;;;;5002896;28;20541;-52
2021/08/08 00:59:03;;;;;;;3.40;2.53;;;18.60;99.90;;;;;;5002486;28;20438;-50
2021/08/08 01:01:35;;;;;;;2.87;2.57;;;18.60;99.90;;;;;;5002136;28;20653;-52
2021/08/08 01:04:04;;;;;;;2.93;2.63;;;18.60;99.90;;;;;;5002430;28;20453;-50
2021/08/08 01:06:41;;;;;;;5.07;2.60;;;18.60;99.90;;;;;;5002011;28;20462;-49
2021/08/08 01:09:12;;;;;;;3.60;2.53;;;18.50;99.90;;;;;;5001965;28;20481;-51
2021/08/08 01:11:39;;;;;;;3.03;2.77;;;18.50;99.90;;;;;;5002443;28;20453;-48
2021/08/08 01:14:08;;;;;;;6.70;3.37;;;18.50;99.90;;;;;;5002716;28;20446;-48
2021/08/08 01:16:36;;;;;;;4.97;2.90;;;18.40;99.90;;;;;;5002305;28;20458;-49
2021/08/08 01:19:05;;;;;;;4.03;2.97;;;18.40;99.90;;;;;;5001769;28;20750;-48
2021/08/08 01:21:33;;;;;;;3.93;2.97;;;18.40;99.90;;;;;;5000342;28;20461;-49
2021/08/08 01:24:05;;;;;;;2.90;2.30;;;18.40;99.90;;;;;;5001672;28;20474;-52
2021/08/08 01:26:33;;;;;;;2.60;2.40;;;18.30;99.90;;;;;;5001731;28;20504;-53
2021/08/08 01:29:01;;;;;;;4.40;2.87;;;18.30;99.90;;;;;;5000924;28;20481;-47
2021/08/08 01:31:28;;;;;;;2.97;2.67;;;18.30;99.90;;;;;;5002100;28;20934;-52
2021/08/08 01:33:55;;;;;;;3.13;2.77;;;18.30;99.90;;;;;;5002661;28;20828;-49
2021/08/08 01:36:22;;;;;;;6.93;2.43;;;18.20;99.90;;;;;;5002056;28;20580;-52
2021/08/08 01:38:55;;;;;;;2.60;2.40;;;18.20;99.90;;;;;;5001782;28;20514;-52
2021/08/08 01:41:25;;;;;;;2.93;2.63;;;18.20;99.90;;;;;;5002072;28;20458;-49
2021/08/08 01:43:54;;;;;;;3.40;2.40;;;18.20;99.90;;;;;;5002267;28;20741;-52
2021/08/08 01:46:25;;;;;;;3.30;2.60;;;18.20;99.90;;;;;;5001817;28;20478;-54
2021/08/08 01:48:56;;;;;;;4.70;2.90;;;18.20;99.90;;;;;;5001756;28;20482;-51
2021/08/08 01:51:24;;;;;;;3.30;2.57;;;18.20;99.90;;;;;;5001902;28;20453;-47
2021/08/08 01:53:52;;;;;;;5.47;2.90;;;18.10;99.90;;;;;;5001627;28;20458;-48
2021/08/08 01:56:19;;;;;;;3.90;2.70;;;18.10;99.90;;;;;;5001388;28;20465;-50
2021/08/08 01:58:47;;;;;;;4.93;3.10;;;18.10;99.90;;;;;;5001554;28;20864;-48
2021/08/08 02:01:14;;;;;;;5.43;3.10;;;18.10;99.90;;;;;;5001881;28;20446;-50
2021/08/08 02:03:41;;;;;;;2.60;2.40;;;18.20;99.90;;;;;;5002230;28;20497;-49
2021/08/08 02:06:09;;;;;;;2.27;2.00;;;18.20;99.90;;;;;;5001660;28;20454;-49
2021/08/08 02:08:36;;;;;;;3.13;2.83;;;18.10;99.90;;;;;;5001875;28;20506;-49
2021/08/08 02:11:04;;;;;;;3.43;3.13;;;18.20;99.90;;;;;;5002150;28;20454;-51
2021/08/08 02:13:31;;;;;;;4.20;2.93;;;18.20;99.90;;;;;;5002384;28;20529;-50
2021/08/08 02:15:59;;;;;;;3.73;2.97;;;18.20;99.90;;;;;;5002405;28;20516;-51
2021/08/08 02:18:27;;;;;;;3.77;3.47;;;18.20;99.90;;;;;;5002090;28;20450;-52
2021/08/08 02:20:54;;;;;;;3.70;2.60;;;18.10;99.90;;;;;;5002050;28;20450;-48
2021/08/08 02:23:21;;;;;;;3.00;2.70;;;18.10;99.90;;;;;;5001789;28;20969;-51
2021/08/08 02:25:50;;;;;;;7.47;3.00;;;18.00;99.90;;;;;;5001679;28;20454;-48
2021/08/08 02:28:18;;;;;;;5.97;3.20;;;18.00;99.90;;;;;;5001931;28;20473;-50
2021/08/08 02:30:44;;;;;;;3.50;2.93;;;18.00;99.90;;;;;;5002013;28;20457;-46
2021/08/08 02:33:12;;;;;;;3.20;2.80;;;18.00;99.90;;;;;;5002549;28;20512;-48
2021/08/08 02:35:39;;;;;;;4.10;3.23;;;17.90;99.90;;;;;;5001736;28;20465;-48
2021/08/08 02:38:06;;;;;;;6.00;2.90;;;17.90;99.90;;;;;;5003005;28;20445;-48
2021/08/08 02:40:32;;;;;;;12.13;3.83;;;17.90;99.90;;;;;;5003496;28;20542;-49
2021/08/08 02:42:59;;;;;;;3.47;2.40;;;17.90;99.90;;;;;;5006023;28;20438;-47
2021/08/08 02:45:27;;;;;;;3.70;2.57;;;17.90;99.90;;;;;;5005258;28;20484;-53
2021/08/08 02:47:53;;;;;;;4.33;2.70;;;17.90;99.90;;;;;;5005836;28;20834;-53
2021/08/08 02:50:21;;;;;;;2.87;2.67;;;17.90;99.90;;;;;;5005099;28;20481;-54
2021/08/08 02:52:48;;;;;;;3.07;2.77;;;17.90;99.90;;;;;;5005048;28;20797;-53
2021/08/08 02:55:15;;;;;;;3.40;3.10;;;17.90;99.90;;;;;;5005540;28;20808;-46
2021/08/08 02:57:42;;;;;;;4.90;2.70;;;17.90;99.90;;;;;;5005233;28;20452;-49
2021/08/08 03:00:10;;;;;;;2.90;2.60;;;17.90;99.90;;;;;;5006146;28;20442;-50
2021/08/08 03:02:37;;;;;;;4.33;3.03;;;17.90;99.90;;;;;;5006070;28;20446;-49
2021/08/08 03:05:04;;;;;;;2.83;2.60;;;18.00;99.90;;;;;;5004463;28;20485;-46
2021/08/08 03:07:32;;;;;;;3.70;3.27;;;18.00;99.90;;;;;;5005869;28;20475;-46
2021/08/08 03:10:02;;;;;;;3.13;2.83;;;18.00;99.90;;;;;;5006922;28;20485;-46
2021/08/08 03:12:29;;;;;;;3.43;2.63;;;18.00;99.90;;;;;;5007823;28;20446;-47
2021/08/08 03:14:55;;;;;;;3.87;2.53;;;18.00;99.90;;;;;;5006261;28;20450;-50
2021/08/08 03:17:22;;;;;;;3.90;2.90;;;18.00;99.90;;;;;;5005335;28;20445;-53
2021/08/08 03:19:49;;;;;;;2.53;2.33;;;18.10;99.90;;;;;;5005204;28;20442;-49
2021/08/08 03:22:16;;;;;;;2.87;2.60;;;18.10;99.90;;;;;;5005222;28;20476;-50
2021/08/08 03:24:45;;;;;;;6.10;2.70;;;18.10;99.90;;;;;;5005676;28;20512;-49
2021/08/08 03:27:13;;;;;;;3.30;2.83;;;18.10;99.90;;;;;;5005768;28;20477;-53
2021/08/08 03:29:39;;;;;;;3.33;2.53;;;18.10;99.90;;;;;;5005538;28;20544;-51
2021/08/08 03:32:07;;;;;;;3.53;2.70;;;18.10;99.90;;;;;;5004966;28;20446;-52
2021/08/08 03:34:33;;;;;;;2.87;2.60;;;18.10;99.90;;;;;;5005047;28;20461;-50
2021/08/08 03:37:00;;;;;;;4.70;2.83;;;18.10;99.90;;;;;;5005327;28;20450;-47
2021/08/08 03:39:27;;;;;;;5.67;3.17;;;18.10;99.90;;;;;;5005132;28;20446;-51
2021/08/08 03:41:55;;;;;;;4.00;2.70;;;18.10;99.90;;;;;;5004858;28;20442;-51
2021/08/08 03:44:22;;;;;;;2.57;2.07;;;18.10;99.90;;;;;;5004192;28;20454;-52
2021/08/08 03:46:53;;;;;;;3.60;2.93;;;18.10;99.90;;;;;;5003229;28;20943;-49
2021/08/08 03:49:19;;;;;;;3.90;2.90;;;18.20;99.90;;;;;;5004337;28;20881;-48
2021/08/08 03:51:46;;;;;;;4.70;2.80;;;18.10;99.90;;;;;;5002819;28;20489;-52
2021/08/08 03:54:13;;;;;;;3.40;2.63;;;18.10;99.90;;;;;;5004912;28;20477;-49
2021/08/08 03:56:39;;;;;;;5.03;3.20;;;18.10;99.90;;;;;;5005036;28;20473;-53
2021/08/08 03:59:07;;;;;;;3.97;2.70;;;18.10;99.90;;;;;;5004506;28;20442;-49
2021/08/08 04:01:34;;;;;;;3.50;2.50;;;18.10;99.90;;;;;;5004209;28;20445;-51
2021/08/08 04:04:02;;;;;;;4.40;2.70;;;18.10;99.90;;;;;;5003681;28;20481;-50
2021/08/08 04:06:29;;;;;;;2.97;2.43;;;18.10;99.90;;;;;;5004167;28;20465;-49
2021/08/08 04:08:55;;;;;;;2.97;2.63;;;18.00;99.90;;;;;;5004115;28;20482;-52
2021/08/08 04:11:25;;;;;;;2.47;2.27;;;18.00;99.90;;;;;;5004972;28;20988;-50
2021/08/08 04:13:52;;;;;;;2.93;2.47;;;18.00;99.90;;;;;;5004491;28;20449;-50
2021/08/08 04:16:20;;;;;;;2.77;2.20;;;18.00;99.90;;;;;;5004070;28;20442;-52
2021/08/08 04:18:47;;;;;;;2.97;2.20;;;18.00;99.90;;;;;;5004715;28;20458;-49
2021/08/08 04:21:13;;;;;;;3.50;2.97;;;18.00;99.90;;;;;;5004128;28;20481;-51
2021/08/08 04:23:40;;;;;;;3.53;2.50;;;18.00;99.90;;;;;;5004871;28;20504;-49
2021/08/08 04:26:07;;;;;;;3.33;2.80;;;18.00;99.90;;;;;;5004617;28;20854;-51
2021/08/08 04:28:39;;;;;;;3.27;2.63;;;18.00;99.90;;;;;;5004287;28;20921;-50
2021/08/08 04:31:06;;;;;;;6.57;2.70;;;18.00;99.90;;;;;;5004163;28;20819;-51
2021/08/08 04:33:34;;;;;;;3.87;2.53;;;18.00;99.90;;;;;;5004724;28;20481;-48
2021/08/08 04:36:01;;;;;;;4.20;2.87;;;18.00;99.90;;;;;;5004466;28;20493;-50
2021/08/08 04:38:27;;;;;;;4.20;3.17;;;18.00;99.90;;;;;;5003611;28;20845;-54
2021/08/08 04:40:54;;;;;;;4.80;2.67;;;18.00;99.90;;;;;;5004109;28;20442;-48
2021/08/08 04:43:21;;;;;;;4.20;3.23;;;18.10;99.90;;;;;;5003408;28;20485;-52
2021/08/08 04:45:48;;;;;;;4.83;2.60;;;18.10;99.90;;;;;;5003971;28;20473;-52
2021/08/08 04:48:14;;;;;;;4.10;2.90;;;18.10;99.90;;;;;;5004512;28;20453;-49
2021/08/08 04:50:42;;;;;;;3.27;2.53;;;18.10;99.90;;;;;;5003588;28;20874;-48
2021/08/08 04:53:13;;;;;;;3.97;3.43;;;18.10;99.90;;;;;;5003336;28;20473;-49
2021/08/08 04:55:40;;;;;;;3.53;2.03;;;18.20;99.90;;;;;;5003526;28;20973;-50
2021/08/08 04:58:07;;;;;;;4.67;2.47;;;18.20;99.90;;;;;;5003555;28;20433;-51
2021/08/08 05:00:33;;;;;;;3.37;3.07;;;18.20;99.90;;;;;;5003700;28;20446;-53
2021/08/08 05:03:01;;;;;;;3.00;2.70;;;18.10;99.90;;;;;;5003555;28;20866;-50
2021/08/08 05:05:32;;;;;;;5.53;3.57;;;18.10;99.90;;;;;;5003939;28;20453;-49
2021/08/08 05:08:00;;;;;;;4.00;2.23;;;18.00;99.90;;;;;;5003920;28;20461;-50
2021/08/08 05:10:27;;;;;;;5.33;2.40;;;18.00;99.90;;;;;;5003747;28;20517;-49
2021/08/08 05:12:54;;;;;;;3.10;1.80;;;17.90;99.90;;;;;;5004277;28;20898;-51
2021/08/08 05:15:21;;;;;;;6.33;2.53;;;17.90;99.90;;;;;;5004042;28;20473;-47
2021/08/08 05:17:48;;;;;;;4.57;2.37;;;17.90;99.90;;;;;;5004090;28;20528;-49
2021/08/08 05:20:17;;;;;;;2.40;2.03;;;18.00;99.90;;;;;;5004046;28;20473;-47
2021/08/08 05:22:44;;;;;;;3.10;2.10;;;18.00;99.90;;;;;;5003713;28;20450;-51
2021/08/08 05:25:13;;;;;;;2.70;2.30;;;18.00;99.90;;;;;;5003516;28;20477;-51
2021/08/08 05:27:40;;;;;;;3.70;2.03;;;17.90;99.90;;;;;;5003517;28;20457;-51
2021/08/08 05:30:12;;;;;;;3.77;2.50;;;18.00;99.90;;;;;;5003030;28;20481;-46
2021/08/08 05:32:39;;;;;;;5.23;2.00;;;17.90;99.90;;;;;;5003061;28;20500;-49
2021/08/08 05:35:08;;;;;;;2.63;2.30;;;18.00;99.90;;;;;;5003002;28;20512;-48
2021/08/08 05:37:39;;;;;;;2.90;2.20;;;18.00;99.90;;;;;;5002406;28;20819;-51
2021/08/08 05:40:07;;;;;;;3.33;2.33;;;18.00;99.90;;;;;;5002779;28;20449;-50
2021/08/08 05:42:36;;;;;;;2.50;2.30;;;18.00;99.90;;;;;;5003343;28;20481;-48
2021/08/08 05:45:04;;;;;;;2.90;1.90;;;18.10;99.90;;;;;;5012885;28;20426;-48
2021/08/08 05:47:31;;;;;;;4.63;2.23;;;18.10;99.90;;;;;;5018592;28;20418;-48
2021/08/08 05:50:00;;;;;;;2.60;1.83;;;18.10;99.90;;;;;;5018202;28;20461;-49
2021/08/08 05:52:27;;;;;;;6.37;2.80;;;18.20;99.90;;;;;;5018117;28;20426;-53
2021/08/08 05:54:54;;;;;;;3.93;2.30;;;18.20;99.90;;;;;;5017873;28;20450;-54
2021/08/08 05:57:20;;;;;;;5.87;2.10;;;18.20;99.90;;;;;;5018115;28;20442;-51
2021/08/08 05:59:50;;;;;;;3.50;1.93;;;18.20;99.90;;;;;;5018417;28;20446;-50
2021/08/08 06:02:19;;;;;;;2.23;2.03;;;18.20;99.90;;;;;;5018282;28;20450;-54
2021/08/08 06:04:48;;;;;;;3.17;2.80;;;18.20;99.90;;;;;;5018303;28;20517;-46
2021/08/08 06:07:15;;;;;;;4.50;2.43;;;18.30;99.90;;;;;;5018554;28;20489;-48
2021/08/08 06:09:43;;;;;;;3.73;2.60;;;18.30;99.90;;;;;;5018361;28;20470;-56
2021/08/08 06:12:10;;;;;;;4.40;2.40;;;18.40;99.90;;;;;;5018494;28;20438;-50
2021/08/08 06:14:37;;;;;;;3.50;2.63;;;18.40;99.90;;;;;;5018168;28;20481;-50
2021/08/08 06:17:05;;;;;;;2.70;2.17;;;18.40;99.90;;;;;;5021896;28;20496;-52
2021/08/08 06:19:32;;;;;;;2.70;1.70;;;18.40;99.90;;;;;;5021843;28;20438;-47
2021/08/08 06:21:58;;;;;;;2.30;2.00;;;18.40;99.90;;;;;;5021641;28;20465;-53
2021/08/08 06:24:25;;;;;;;2.33;1.63;;;18.40;99.90;;;;;;5020792;28;20498;-52
2021/08/08 06:26:52;;;;;;;7.07;2.20;;;18.50;99.90;;;;;;5021202;28;20481;-50
2021/08/08 06:29:18;;;;;;;3.83;1.90;;;18.60;99.90;;;;;;5020521;28;20486;-51
2021/08/08 06:31:45;;;;;;;3.13;1.93;;;18.70;99.90;;;;;;5020934;28;20484;-53
2021/08/08 06:34:13;;;;;;;3.17;1.87;;;18.70;99.90;;;;;;5020609;28;20441;-52
2021/08/08 06:36:40;;;;;;;2.87;1.97;;;18.80;99.90;;;;;;5021035;28;20430;-47
2021/08/08 06:39:08;;;;;;;3.93;1.80;;;18.80;99.90;;;;;;5020920;28;20484;-53
2021/08/08 06:41:34;;;;;;;2.53;1.80;;;18.80;99.90;;;;;;5021108;28;20477;-53
2021/08/08 06:44:01;;;;;;;3.70;1.80;;;18.80;99.90;;;;;;5020810;28;20450;-52
2021/08/08 06:46:28;;;;;;;3.50;2.10;;;18.90;99.90;;;;;;5020499;28;20450;-52
2021/08/08 06:48:54;;;;;;;4.83;2.23;;;18.90;99.90;;;;;;5020640;28;20446;-53
2021/08/08 06:51:22;;;;;;;2.53;2.33;;;18.90;99.90;;;;;;5020516;28;20477;-53
2021/08/08 06:53:49;;;;;;;2.80;2.10;;;19.00;99.90;;;;;;5020976;28;20492;-50
2021/08/08 06:56:16;;;;;;;3.93;2.13;;;19.10;99.90;;;;;;5021147;28;20457;-47
2021/08/08 06:58:42;;;;;;;2.97;1.93;;;19.20;99.90;;;;;;5020781;28;20442;-53
2021/08/08 07:01:15;;;;;;;6.73;1.50;;;19.30;99.90;;;;;;5020840;28;20438;-50
2021/08/08 07:03:42;;;;;;;2.23;1.80;;;19.50;99.90;;;;;;5020404;28;20446;-52
2021/08/08 07:06:09;;;;;;;4.03;1.63;;;19.50;99.90;;;;;;5021033;28;20479;-53
2021/08/08 07:08:37;;;;;;;2.47;1.70;;;19.50;99.90;;;;;;5021207;28;20434;-52
2021/08/08 07:11:04;;;;;;;2.37;2.17;;;19.50;99.90;;;;;;5020615;28;20481;-53
2021/08/08 07:13:30;;;;;;;5.83;1.90;;;19.50;99.90;;;;;;5020378;28;20429;-52
2021/08/08 07:15:57;;;;;;;2.33;1.57;;;19.60;99.90;;;;;;5020566;28;20473;-52
2021/08/08 07:18:24;;;;;;;3.37;1.60;;;19.70;99.90;;;;;;5020147;28;20447;-51
2021/08/08 07:20:51;;;;;;;2.67;1.20;;;19.70;99.90;;;;;;5019673;28;20442;-53
2021/08/08 07:23:17;;;;;;;3.43;1.80;;;19.90;99.90;;;;;;5020003;28;20554;-52
2021/08/08 07:25:45;;;;;;;1.73;1.40;;;19.90;99.90;;;;;;5019642;28;20438;-53
2021/08/08 07:28:12;;;;;;;3.00;1.87;;;20.00;99.90;;;;;;5019853;28;20821;-52
2021/08/08 07:30:38;;;;;;;5.77;1.90;;;20.00;99.90;;;;;;5019820;28;20488;-50
2021/08/08 07:33:05;;;;;;;2.40;1.53;;;20.10;99.90;;;;;;5019588;28;20438;-49
2021/08/08 07:35:32;;;;;;;1.60;1.50;;;20.20;99.90;;;;;;5019932;28;20446;-48
2021/08/08 07:37:59;;;;;;;2.73;1.77;;;20.30;99.90;;;;;;5019742;28;20485;-50
2021/08/08 07:40:25;;;;;;;3.60;1.73;;;20.30;99.90;;;;;;5020235;28;20525;-48
2021/08/08 07:42:53;;;;;;;2.70;1.57;;;20.40;99.90;;;;;;5020110;28;20431;-50
2021/08/08 07:45:20;;;;;;;2.30;2.10;;;20.60;99.90;;;;;;5019872;28;20478;-49
2021/08/08 07:47:47;;;;;;;2.90;1.40;;;20.60;99.90;;;;;;5019589;28;20430;-52
2021/08/08 07:50:14;;;;;;;1.67;1.30;;;20.70;99.90;;;;;;5019776;28;20505;-53
2021/08/08 07:52:41;;;;;;;3.10;1.53;;;21.00;99.90;;;;;;5019573;28;20456;-51
2021/08/08 07:55:09;;;;;;;2.03;1.30;;;21.50;99.90;;;;;;5019406;28;20457;-52
2021/08/08 07:57:36;;;;;;;2.97;1.83;;;22.70;99.90;;;;;;5019220;28;20504;-51
2021/08/08 08:00:07;;;;;;;2.30;1.50;;;24.20;99.90;;;;;;5019124;28;20438;-53
2021/08/08 08:02:34;;;;;;;2.20;1.60;;;25.80;99.90;;;;;;5019136;28;20426;-51
2021/08/08 08:05:00;;;;;;;1.33;1.20;;;27.30;99.90;;;;;;5018907;28;20441;-51
2021/08/08 08:07:27;;;;;;;2.67;1.73;;;28.40;99.50;;;;;;5018817;28;20530;-50
2021/08/08 08:09:54;;;;;;;2.37;1.30;;;28.90;93.80;;;;;;5018397;28;20530;-51
2021/08/08 08:12:20;;;;;;;2.20;1.43;;;29.20;90.60;;;;;;5018494;28;20477;-51
2021/08/08 08:14:47;;;;;;;3.57;1.83;;;29.20;88.60;;;;;;5018739;28;20486;-50
2021/08/08 08:17:15;;;;;;;2.17;1.67;;;28.70;88.70;;;;;;5018623;28;20446;-50
2021/08/08 08:19:42;;;;;;;2.13;1.80;;;28.30;90.70;;;;;;5018320;28;20983;-52
2021/08/08 08:22:09;;;;;;;2.60;1.50;;;29.00;88.60;;;;;;5018558;28;20425;-54
2021/08/08 08:24:35;;;;;;;3.00;2.30;;;29.90;82.20;;;;;;5018141;28;20477;-52
2021/08/08 08:27:02;;;;;;;2.13;1.50;;;30.30;78.40;;;;;;5017919;28;20441;-54
2021/08/08 08:29:29;;;;;;;2.00;1.40;;;29.30;76.50;;;;;;5018376;28;20430;-50
2021/08/08 08:31:55;;;;;;;2.00;1.77;;;29.00;78.30;;;;;;5018493;28;20484;-52
2021/08/08 08:34:23;;;;;;;2.53;1.83;;;29.70;76.60;;;;;;5018363;28;20481;-49
2021/08/08 08:36:50;;;;;;;5.10;3.07;;;30.30;73.90;;;;;;5018079;28;20554;-51
2021/08/08 08:39:17;;;;;;;4.03;2.40;;;30.30;71.70;;;;;;5017213;28;20461;-51
2021/08/08 08:41:44;;;;;;;3.33;1.37;;;29.10;72.80;;;;;;5017476;28;20433;-52
2021/08/08 08:44:11;;;;;;;2.20;1.70;;;27.70;73.80;;;;;;5018655;28;20547;-50
2021/08/08 08:46:41;;;;;;;1.60;1.40;;;26.40;79.80;;;;;;5018532;28;20485;-52
2021/08/08 08:49:10;;;;;;;4.70;1.30;;;25.70;83.70;;;;;;5018172;28;20432;-50
2021/08/08 08:51:43;;;;;;;1.40;1.30;;;25.90;86.90;;;;;;5017811;28;20861;-51
2021/08/08 08:54:11;;;;;;;1.70;1.33;;;26.40;84.80;;;;;;5018403;28;20473;-50
2021/08/08 08:56:38;;;;;;;1.60;1.30;;;26.60;84.30;;;;;;5017587;28;20514;-49
2021/08/08 08:59:06;;;;;;;1.70;1.47;;;26.60;85.10;;;;;;5018168;28;20450;-51
2021/08/08 09:01:33;;;;;;;2.50;2.00;;;26.60;85.50;;;;;;5017864;28;20442;-50
2021/08/08 09:04:00;;;;;;;3.33;1.37;;;26.20;86.20;;;;;;5017858;28;20450;-53
2021/08/08 09:06:28;;;;;;;5.73;1.50;;;25.70;87.70;;;;;;5018164;28;20433;-53
2021/08/08 09:08:56;;;;;;;2.13;1.50;;;25.00;90.00;;;;;;5018303;28;20422;-51
2021/08/08 09:11:23;;;;;;;1.20;1.03;;;24.50;91.70;;;;;;5018149;28;20570;-53
2021/08/08 09:13:52;;;;;;;2.10;1.70;;;24.40;92.30;;;;;;5017877;28;20450;-48
2021/08/08 09:16:21;;;;;;;2.73;2.10;;;24.40;93.80;;;;;;5017749;28;20425;-53
2021/08/08 09:18:51;;;;;;;4.80;2.73;;;24.40;93.70;;;;;;5017263;28;20481;-50
2021/08/08 09:21:19;;;;;;;3.63;1.70;;;24.90;93.80;;;;;;5017633;28;20436;-48
2021/08/08 09:23:50;;;;;;;1.83;1.50;;;25.20;94.30;;;;;;5017949;28;20434;-48
2021/08/08 09:26:28;;;;;;;1.67;1.33;;;26.10;92.40;;;;;;5017817;28;20450;-53
2021/08/08 09:29:07;;;;;;;3.67;2.70;;;27.00;90.50;;;;;;5017403;28;20430;-49
2021/08/08 09:31:39;;;;;;;8.60;5.20;;;27.00;88.80;;;;;;5017317;28;20482;-50
2021/08/08 09:34:06;;;;;;;2.23;2.03;;;27.70;88.50;;;;;;5017353;28;20465;-51
2021/08/08 09:36:40;;;;;;;2.07;1.63;;;29.00;85.00;;;;;;5017416;28;20453;-50
2021/08/08 09:39:07;;;;;;;2.47;1.50;;;30.10;79.60;;;;;;5016904;28;20422;-51
2021/08/08 09:41:36;;;;;;;4.43;4.00;;;30.20;74.30;;;;;;5017217;28;20465;-50
2021/08/08 09:44:07;;;;;;;6.73;6.00;;;29.50;74.90;;;;;;5016805;28;20450;-49
2021/08/08 09:46:33;;;;;;;7.30;3.93;;;28.10;77.40;;;;;;5017228;28;20718;-53
2021/08/08 09:49:07;;;;;;;1.60;1.13;;;27.00;81.00;;;;;;5017182;28;20433;-53
2021/08/08 09:51:47;;;;;;;3.30;1.33;;;25.90;84.60;;;;;;5020310;28;20512;-52
2021/08/08 09:54:14;;;;;;;1.77;1.63;;;25.10;89.00;;;;;;5021639;28;20448;-54
2021/08/08 09:56:42;;;;;;;2.97;1.53;;;24.40;92.00;;;;;;5021557;28;20422;-49
2021/08/08 09:59:09;;;;;;;1.70;1.40;;;24.30;93.90;;;;;;5021621;28;20482;-53
2021/08/08 10:01:38;;;;;;;1.40;1.10;;;25.00;94.10;;;;;;5021550;28;20441;-50
2021/08/08 10:04:05;;;;;;;1.50;1.20;;;26.50;91.70;;;;;;5021092;28;20473;-46
2021/08/08 10:06:31;;;;;;;4.70;1.30;;;27.60;86.90;;;;;;5021163;28;20450;-51
2021/08/08 10:09:00;;;;;;;1.60;1.40;;;28.50;83.50;;;;;;5020833;28;20442;-53
2021/08/08 10:11:26;;;;;;;2.17;1.60;;;29.20;79.40;;;;;;5021003;28;20461;-51
2021/08/08 10:13:57;;;;;;;2.50;1.60;;;29.80;77.20;;;;;;5020603;28;20442;-54
2021/08/08 10:16:26;;;;;;;2.57;1.83;;;29.70;74.70;;;;;;5021193;28;20430;-54
2021/08/08 10:18:55;;;;;;;1.93;1.70;;;29.00;77.50;;;;;;5020613;28;20442;-54
2021/08/08 10:21:22;;;;;;;2.30;1.50;;;29.00;78.20;;;;;;5020836;28;20449;-50
2021/08/08 10:23:50;;;;;;;3.70;1.50;;;29.60;75.90;;;;;;5020645;28;20473;-53
2021/08/08 10:26:18;;;;;;;1.87;1.50;;;29.50;72.70;;;;;;5020859;28;20453;-53
2021/08/08 10:28:49;;;;;;;1.63;1.20;;;28.80;74.80;;;;;;5020848;28;20460;-51
2021/08/08 10:31:18;;;;;;;1.90;1.60;;;28.70;72.90;;;;;;5020177;28;20500;-50
2021/08/08 10:33:46;;;;;;;1.60;1.40;;;29.10;72.20;;;;;;5020902;28;20430;-49
2021/08/08 10:36:18;;;;;;;1.47;1.37;;;29.10;71.30;;;;;;5021020;28;20776;-51
2021/08/08 10:38:45;;;;;;;2.17;1.60;;;29.20;69.10;;;;;;5021174;28;20422;-48
2021/08/08 10:41:12;;;;;;;1.83;1.30;;;29.20;68.60;;;;;;5021137;28;20468;-47
2021/08/08 10:43:44;;;;;;;1.73;1.43;;;28.60;68.90;;;;;;5020780;28;20438;-45
2021/08/08 10:46:12;;;;;;;3.60;1.90;;;27.70;69.90;;;;;;5020472;28;20469;-47
2021/08/08 10:48:42;;;;;;;3.90;2.07;;;27.00;72.90;;;;;;5021109;28;20438;-50
2021/08/08 10:51:20;;;;;;;2.03;1.83;;;26.60;74.70;;;;;;5020695;28;20489;-48
2021/08/08 10:54:00;;;;;;;2.37;1.43;;;26.90;75.90;;;;;;5020895;28;20451;-49
2021/08/08 10:56:38;;;;;;;3.17;1.60;;;27.20;75.20;;;;;;5020788;28;20444;-57
2021/08/08 10:59:12;;;;;;;3.53;1.57;;;27.50;75.70;;;;;;5020503;28;20481;-49
2021/08/08 11:01:39;;;;;;;2.13;1.53;;;27.90;74.50;;;;;;5020056;28;20434;-49
2021/08/08 11:04:07;;;;;;;2.20;1.37;;;28.10;72.50;;;;;;5020368;28;20461;-51
2021/08/08 11:06:35;;;;;;;6.87;1.80;;;28.00;71.40;;;;;;5020285;28;20430;-52
2021/08/08 11:09:03;;;;;;;3.83;1.53;;;27.50;72.40;;;;;;5020483;28;20451;-50
2021/08/08 11:11:31;;;;;;;3.00;2.40;;;27.00;73.50;;;;;;5020284;28;20473;-51
2021/08/08 11:14:12;;;;;;;3.90;2.10;;;26.30;75.40;;;;;;5020115;28;20446;-50
2021/08/08 11:16:39;;;;;;;3.20;1.80;;;25.70;76.50;;;;;;5019776;28;20427;-48
2021/08/08 11:19:08;;;;;;;3.13;1.60;;;25.20;78.60;;;;;;5020294;28;20447;-52
2021/08/08 11:21:35;;;;;;;4.10;2.93;;;24.70;81.40;;;;;;5020059;28;20426;-50
2021/08/08 11:24:03;;;;;;;3.93;2.70;;;24.50;83.20;;;;;;5020029;28;20469;-53
2021/08/08 11:26:30;;;;;;;4.13;3.07;;;24.70;84.70;;;;;;5020011;28;20434;-51
2021/08/08 11:28:59;;;;;;;2.60;2.40;;;24.80;83.40;;;;;;5019945;28;20468;-50
2021/08/08 11:31:34;;;;;;;2.60;2.20;;;24.60;83.80;;;;;;5020115;28;20477;-49
2021/08/08 11:34:03;;;;;;;4.47;2.40;;;24.40;84.70;;;;;;5019815;28;20430;-50
2021/08/08 11:36:33;;;;;;;2.60;2.00;;;24.10;83.70;;;;;;5020365;28;20426;-53
2021/08/08 11:39:01;;;;;;;3.53;1.57;;;24.30;85.20;;;;;;5020057;28;20431;-47
2021/08/08 11:41:29;;;;;;;3.43;2.00;;;24.80;84.90;;;;;;5019711;28;20469;-50
2021/08/08 11:44:07;;;;;;;1.97;1.60;;;25.30;84.40;;;;;;5019192;28;20477;-52
2021/08/08 11:46:34;;;;;;;6.17;2.87;;;25.60;84.30;;;;;;5018982;28;20473;-51
2021/08/08 11:49:01;;;;;;;2.90;2.10;;;25.70;83.10;;;;;;5019232;28;20423;-47
2021/08/08 11:51:28;;;;;;;2.30;1.40;;;25.60;80.80;;;;;;5019279;28;20473;-53
2021/08/08 11:53:56;;;;;;;3.77;1.93;;;25.50;80.80;;;;;;5019717;28;20502;-52
2021/08/08 11:56:28;;;;;;;3.50;1.60;;;25.50;79.60;;;;;;5019420;28;20465;-53
2021/08/08 11:58:56;;;;;;;2.53;1.57;;;25.40;79.40;;;;;;5019960;28;20438;-53
2021/08/08 12:01:24;;;;;;;2.27;1.40;;;25.40;78.60;;;;;;5019860;28;20442;-52
2021/08/08 12:03:51;;;;;;;2.80;1.73;;;25.50;78.20;;;;;;5019121;28;20517;-53
2021/08/08 12:06:22;;;;;;;3.63;1.70;;;25.60;78.20;;;;;;5019115;28;20454;-53
2021/08/08 12:08:50;;;;;;;1.60;1.50;;;25.50;77.60;;;;;;5018872;28;20446;-51
2021/08/08 12:11:20;;;;;;;1.83;1.50;;;25.30;74.60;;;;;;5018937;28;20442;-50
2021/08/08 12:13:59;;;;;;;2.10;1.20;;;25.20;75.90;;;;;;5018101;28;20450;-50
2021/08/08 12:16:32;;;;;;;3.57;2.20;;;25.10;76.70;;;;;;5018766;28;20454;-52
2021/08/08 12:18:59;;;;;;;4.90;2.30;;;25.20;77.50;;;;;;5018986;28;20441;-49
2021/08/08 12:21:26;;;;;;;5.00;1.73;;;25.30;76.80;;;;;;5018752;28;20450;-50
2021/08/08 12:24:03;;;;;;;5.47;2.17;;;25.30;76.20;;;;;;5018591;28;20442;-53
2021/08/08 12:26:31;;;;;;;4.40;2.00;;;25.40;76.40;;;;;;5018833;28;20454;-52
2021/08/08 12:29:05;;;;;;;2.13;1.67;;;25.40;75.70;;;;;;5018158;28;20426;-52
2021/08/08 12:31:36;;;;;;;1.87;1.60;;;25.30;75.50;;;;;;5018781;28;20465;-52
2021/08/08 12:34:03;;;;;;;2.00;1.20;;;25.10;73.40;;;;;;5018789;28;20421;-51
2021/08/08 12:36:37;;;;;;;4.37;1.90;;;24.80;74.20;;;;;;5018587;28;20430;-48
2021/08/08 12:39:04;;;;;;;2.43;2.03;;;24.60;75.60;;;;;;5018920;28;20430;-51
2021/08/08 12:41:37;;;;;;;3.87;1.67;;;24.50;76.40;;;;;;5018660;28;20423;-54
2021/08/08 12:44:04;;;;;;;3.07;1.73;;;24.70;77.60;;;;;;5018285;28;20426;-51
2021/08/08 12:46:32;;;;;;;1.80;1.67;;;24.90;77.70;;;;;;5018350;28;20466;-52
2021/08/08 12:49:00;;;;;;;2.03;1.60;;;25.00;77.70;;;;;;5018395;28;20461;-45
2021/08/08 12:51:27;;;;;;;5.57;1.40;;;25.30;76.90;;;;;;5018020;28;20450;-45